Flugplatz Meschede-Schüren

Für EDKM sind keine METAR/TAF Berichte vorhanden.
Es werden die Flugwettermeldungen vom Flugplatz Paderborn Lippstadt in 43 km Entfernung angezeigt.

Bericht für EDLP

vom 27.01. um 05:20 UTC

Wind 13 kt aus 190°

Sichtweite 10 km oder mehr

gute Sicht, keine Wolken < 5000 ft, keine CB, keine Wettererscheinungen (CAVOK)

Temperatur 7.0°C

Taupunkt 3.0°C

Luftfeuchtigkeit 76%

Luftdruck 1010 hPa

EDLP 270520Z 19013KT CAVOK 07/03 Q1010

Prognose für EDLP

vom 27.01. um 00:00 UTC

Zwischen 00:00 UTC und 00:00 UTC

Wind 13 kt aus 180°

Sichtweite 10 km oder mehr

aufgebrochene Bewölkung in 3500 ft


Zwischen 00:00 UTC und 00:00 UTC zeitweise mit einer Wahrscheinlichkeit von 30%

Regen


Am 28.01. zwischen 00:00 UTC und 00:00 UTC zeitweise mit einer Wahrscheinlichkeit von 30%

Regenschauer

aufgebrochene Bewölkung in 2000 ft


Am 28.01. zwischen 00:00 und 00:00 UTC übergehend zu

Wind 15 kt aus 220° in Böen 25 kt

Sichtweite 10 km oder mehr

aufgebrochene Bewölkung in 3500 ft

TAF EDLP 270500Z 2706/2806 18013KT 9999 BKN035 PROB30 TEMPO 2717/2724 RA PROB30 TEMPO 2800/2806 SHRA BKN020TCU BECMG 2804/2806 22015G25KT
Impressum